sensor_id;sensor_type;location;lat;lon;timestamp;temperature;humidity
5560;DHT22;2803;47.916;8.074;2023-05-23T00:02:00;17.60;99.90
5560;DHT22;2803;47.916;8.074;2023-05-23T00:04:26;17.50;99.90
5560;DHT22;2803;47.916;8.074;2023-05-23T00:06:53;17.20;99.90
5560;DHT22;2803;47.916;8.074;2023-05-23T00:09:20;17.30;99.90
5560;DHT22;2803;47.916;8.074;2023-05-23T00:11:49;17.40;99.90
5560;DHT22;2803;47.916;8.074;2023-05-23T00:14:15;17.40;99.90
5560;DHT22;2803;47.916;8.074;2023-05-23T00:16:44;17.50;99.90
5560;DHT22;2803;47.916;8.074;2023-05-23T00:19:14;17.50;99.90
5560;DHT22;2803;47.916;8.074;2023-05-23T00:21:42;17.50;99.90
5560;DHT22;2803;47.916;8.074;2023-05-23T00:24:10;17.50;99.90
5560;DHT22;2803;47.916;8.074;2023-05-23T00:26:36;17.50;99.90
5560;DHT22;2803;47.916;8.074;2023-05-23T00:29:04;17.50;99.90
5560;DHT22;2803;47.916;8.074;2023-05-23T00:31:31;17.40;99.90
5560;DHT22;2803;47.916;8.074;2023-05-23T00:33:58;17.40;99.90
5560;DHT22;2803;47.916;8.074;2023-05-23T00:36:24;17.30;99.90
5560;DHT22;2803;47.916;8.074;2023-05-23T00:38:51;17.20;99.90
5560;DHT22;2803;47.916;8.074;2023-05-23T00:41:18;17.20;99.90
5560;DHT22;2803;47.916;8.074;2023-05-23T00:43:45;17.30;99.90
5560;DHT22;2803;47.916;8.074;2023-05-23T00:46:13;17.10;99.90
5560;DHT22;2803;47.916;8.074;2023-05-23T00:48:40;17.20;99.90
5560;DHT22;2803;47.916;8.074;2023-05-23T00:51:07;17.10;99.90
5560;DHT22;2803;47.916;8.074;2023-05-23T00:53:34;17.10;99.90
5560;DHT22;2803;47.916;8.074;2023-05-23T00:56:01;16.80;99.90
5560;DHT22;2803;47.916;8.074;2023-05-23T00:58:29;16.80;99.90
5560;DHT22;2803;47.916;8.074;2023-05-23T01:00:56;16.80;99.90
5560;DHT22;2803;47.916;8.074;2023-05-23T01:03:25;16.60;99.90
5560;DHT22;2803;47.916;8.074;2023-05-23T01:05:53;16.60;99.90
5560;DHT22;2803;47.916;8.074;2023-05-23T01:08:20;16.60;99.90
5560;DHT22;2803;47.916;8.074;2023-05-23T01:10:47;16.60;99.90
5560;DHT22;2803;47.916;8.074;2023-05-23T01:13:21;16.60;99.90
5560;DHT22;2803;47.916;8.074;2023-05-23T01:15:53;16.70;99.90
5560;DHT22;2803;47.916;8.074;2023-05-23T01:18:25;16.70;99.90
5560;DHT22;2803;47.916;8.074;2023-05-23T01:20:58;16.60;99.90
5560;DHT22;2803;47.916;8.074;2023-05-23T01:23:35;16.60;99.90
5560;DHT22;2803;47.916;8.074;2023-05-23T01:26:21;16.60;99.90
5560;DHT22;2803;47.916;8.074;2023-05-23T01:28:58;16.60;99.90
5560;DHT22;2803;47.916;8.074;2023-05-23T01:31:31;16.40;99.90
5560;DHT22;2803;47.916;8.074;2023-05-23T01:34:00;16.60;99.90
5560;DHT22;2803;47.916;8.074;2023-05-23T01:36:27;16.50;99.90
5560;DHT22;2803;47.916;8.074;2023-05-23T01:38:56;16.40;99.90
5560;DHT22;2803;47.916;8.074;2023-05-23T01:41:23;16.10;99.90
5560;DHT22;2803;47.916;8.074;2023-05-23T01:43:50;16.10;99.90
5560;DHT22;2803;47.916;8.074;2023-05-23T01:46:19;16.10;99.90
5560;DHT22;2803;47.916;8.074;2023-05-23T01:48:46;15.90;99.90
5560;DHT22;2803;47.916;8.074;2023-05-23T01:51:13;16.00;99.90
5560;DHT22;2803;47.916;8.074;2023-05-23T01:53:40;16.20;99.90
5560;DHT22;2803;47.916;8.074;2023-05-23T01:56:08;16.40;99.90
5560;DHT22;2803;47.916;8.074;2023-05-23T01:58:35;16.50;99.90
5560;DHT22;2803;47.916;8.074;2023-05-23T02:01:01;16.60;99.90
5560;DHT22;2803;47.916;8.074;2023-05-23T02:03:29;16.70;99.90
5560;DHT22;2803;47.916;8.074;2023-05-23T02:05:57;16.30;99.90
5560;DHT22;2803;47.916;8.074;2023-05-23T02:08:24;16.40;99.90
5560;DHT22;2803;47.916;8.074;2023-05-23T02:10:50;16.50;99.90
5560;DHT22;2803;47.916;8.074;2023-05-23T02:13:17;16.60;99.90
5560;DHT22;2803;47.916;8.074;2023-05-23T02:15:44;16.50;99.90
5560;DHT22;2803;47.916;8.074;2023-05-23T02:18:10;16.70;99.90
5560;DHT22;2803;47.916;8.074;2023-05-23T02:20:38;16.70;99.90
5560;DHT22;2803;47.916;8.074;2023-05-23T02:23:05;16.90;99.90
5560;DHT22;2803;47.916;8.074;2023-05-23T02:25:32;16.50;99.90
5560;DHT22;2803;47.916;8.074;2023-05-23T02:27:58;16.80;99.90
5560;DHT22;2803;47.916;8.074;2023-05-23T02:30:25;16.80;99.90
5560;DHT22;2803;47.916;8.074;2023-05-23T02:32:52;16.90;99.90
5560;DHT22;2803;47.916;8.074;2023-05-23T02:35:19;16.90;99.90
5560;DHT22;2803;47.916;8.074;2023-05-23T02:37:47;17.00;99.90
5560;DHT22;2803;47.916;8.074;2023-05-23T02:40:13;16.90;99.90
5560;DHT22;2803;47.916;8.074;2023-05-23T02:42:40;17.00;99.90
5560;DHT22;2803;47.916;8.074;2023-05-23T02:45:07;17.00;99.90
5560;DHT22;2803;47.916;8.074;2023-05-23T02:47:34;17.00;99.90
5560;DHT22;2803;47.916;8.074;2023-05-23T02:50:01;17.00;99.90
5560;DHT22;2803;47.916;8.074;2023-05-23T02:52:28;17.10;99.90
5560;DHT22;2803;47.916;8.074;2023-05-23T02:54:56;17.10;99.90
5560;DHT22;2803;47.916;8.074;2023-05-23T02:57:22;17.20;99.90
5560;DHT22;2803;47.916;8.074;2023-05-23T02:59:50;17.20;99.90
5560;DHT22;2803;47.916;8.074;2023-05-23T03:02:16;17.20;99.90
5560;DHT22;2803;47.916;8.074;2023-05-23T03:04:43;17.30;99.90
5560;DHT22;2803;47.916;8.074;2023-05-23T03:07:10;17.40;99.90
5560;DHT22;2803;47.916;8.074;2023-05-23T03:09:38;17.50;99.90
5560;DHT22;2803;47.916;8.074;2023-05-23T03:12:06;17.30;99.90
5560;DHT22;2803;47.916;8.074;2023-05-23T03:14:33;17.40;99.90
5560;DHT22;2803;47.916;8.074;2023-05-23T03:17:00;17.40;99.90
5560;DHT22;2803;47.916;8.074;2023-05-23T03:19:28;17.40;99.90
5560;DHT22;2803;47.916;8.074;2023-05-23T03:21:55;17.50;99.90
5560;DHT22;2803;47.916;8.074;2023-05-23T03:24:21;17.60;99.90
5560;DHT22;2803;47.916;8.074;2023-05-23T03:26:48;17.60;99.90
5560;DHT22;2803;47.916;8.074;2023-05-23T03:29:16;17.60;99.90
5560;DHT22;2803;47.916;8.074;2023-05-23T03:31:42;17.50;99.90
5560;DHT22;2803;47.916;8.074;2023-05-23T03:34:09;17.60;99.90
5560;DHT22;2803;47.916;8.074;2023-05-23T03:36:37;17.60;99.90
5560;DHT22;2803;47.916;8.074;2023-05-23T03:39:04;17.70;99.90
5560;DHT22;2803;47.916;8.074;2023-05-23T03:41:31;17.80;99.90
5560;DHT22;2803;47.916;8.074;2023-05-23T03:43:58;17.70;99.90
5560;DHT22;2803;47.916;8.074;2023-05-23T03:46:26;17.60;99.90
5560;DHT22;2803;47.916;8.074;2023-05-23T03:48:53;17.60;99.90
5560;DHT22;2803;47.916;8.074;2023-05-23T03:51:19;17.70;99.90
5560;DHT22;2803;47.916;8.074;2023-05-23T03:53:46;17.70;99.90
5560;DHT22;2803;47.916;8.074;2023-05-23T03:56:13;17.70;99.90
5560;DHT22;2803;47.916;8.074;2023-05-23T03:58:39;17.70;99.90
5560;DHT22;2803;47.916;8.074;2023-05-23T04:01:06;17.70;99.90
5560;DHT22;2803;47.916;8.074;2023-05-23T04:03:35;17.50;99.90
5560;DHT22;2803;47.916;8.074;2023-05-23T04:06:01;17.40;99.90
5560;DHT22;2803;47.916;8.074;2023-05-23T04:08:28;17.50;99.90
5560;DHT22;2803;47.916;8.074;2023-05-23T04:10:58;17.50;99.90
5560;DHT22;2803;47.916;8.074;2023-05-23T04:13:25;17.50;99.90
5560;DHT22;2803;47.916;8.074;2023-05-23T04:15:52;17.60;99.90
5560;DHT22;2803;47.916;8.074;2023-05-23T04:18:20;17.60;99.90
5560;DHT22;2803;47.916;8.074;2023-05-23T04:20:49;17.70;99.90
5560;DHT22;2803;47.916;8.074;2023-05-23T04:23:15;17.70;99.90
5560;DHT22;2803;47.916;8.074;2023-05-23T04:25:42;17.80;99.90
5560;DHT22;2803;47.916;8.074;2023-05-23T04:28:10;17.30;99.90
5560;DHT22;2803;47.916;8.074;2023-05-23T04:30:37;17.40;99.90
5560;DHT22;2803;47.916;8.074;2023-05-23T04:33:03;17.50;99.90
5560;DHT22;2803;47.916;8.074;2023-05-23T04:35:30;17.60;99.90
5560;DHT22;2803;47.916;8.074;2023-05-23T04:38:00;17.60;99.90
5560;DHT22;2803;47.916;8.074;2023-05-23T04:40:28;17.80;99.90
5560;DHT22;2803;47.916;8.074;2023-05-23T04:42:55;17.80;99.90
5560;DHT22;2803;47.916;8.074;2023-05-23T04:45:22;17.80;99.90
5560;DHT22;2803;47.916;8.074;2023-05-23T04:47:48;17.80;99.90
5560;DHT22;2803;47.916;8.074;2023-05-23T04:50:15;17.90;99.90
5560;DHT22;2803;47.916;8.074;2023-05-23T04:52:42;18.00;99.90
5560;DHT22;2803;47.916;8.074;2023-05-23T04:55:10;18.00;99.90
5560;DHT22;2803;47.916;8.074;2023-05-23T04:57:37;18.00;99.90
5560;DHT22;2803;47.916;8.074;2023-05-23T05:00:04;18.10;99.90
5560;DHT22;2803;47.916;8.074;2023-05-23T05:02:34;18.20;99.90
5560;DHT22;2803;47.916;8.074;2023-05-23T05:05:01;18.10;99.90
5560;DHT22;2803;47.916;8.074;2023-05-23T05:07:28;18.10;99.90
5560;DHT22;2803;47.916;8.074;2023-05-23T05:09:55;18.20;99.90
5560;DHT22;2803;47.916;8.074;2023-05-23T05:12:24;18.30;99.90
5560;DHT22;2803;47.916;8.074;2023-05-23T05:14:52;18.30;99.90
5560;DHT22;2803;47.916;8.074;2023-05-23T05:17:18;18.40;99.90
5560;DHT22;2803;47.916;8.074;2023-05-23T05:19:45;18.40;99.90
5560;DHT22;2803;47.916;8.074;2023-05-23T05:22:12;18.40;99.90
5560;DHT22;2803;47.916;8.074;2023-05-23T05:24:39;18.50;99.90
5560;DHT22;2803;47.916;8.074;2023-05-23T05:27:07;18.60;99.90
5560;DHT22;2803;47.916;8.074;2023-05-23T05:29:37;18.60;99.90
5560;DHT22;2803;47.916;8.074;2023-05-23T05:32:04;18.50;99.90
5560;DHT22;2803;47.916;8.074;2023-05-23T05:34:33;18.60;99.90
5560;DHT22;2803;47.916;8.074;2023-05-23T05:37:00;18.60;99.90
5560;DHT22;2803;47.916;8.074;2023-05-23T05:39:26;18.70;99.90
5560;DHT22;2803;47.916;8.074;2023-05-23T05:41:53;18.80;99.90
5560;DHT22;2803;47.916;8.074;2023-05-23T05:44:20;18.90;99.90
5560;DHT22;2803;47.916;8.074;2023-05-23T05:46:48;18.80;99.90
5560;DHT22;2803;47.916;8.074;2023-05-23T05:49:16;18.80;99.90
5560;DHT22;2803;47.916;8.074;2023-05-23T05:51:42;18.90;99.90
5560;DHT22;2803;47.916;8.074;2023-05-23T05:54:09;18.90;99.90
5560;DHT22;2803;47.916;8.074;2023-05-23T05:56:36;19.00;99.90
5560;DHT22;2803;47.916;8.074;2023-05-23T05:59:02;19.00;99.90
5560;DHT22;2803;47.916;8.074;2023-05-23T06:01:29;19.00;99.90
5560;DHT22;2803;47.916;8.074;2023-05-23T06:03:57;19.20;99.90
5560;DHT22;2803;47.916;8.074;2023-05-23T06:06:24;19.30;99.90
5560;DHT22;2803;47.916;8.074;2023-05-23T06:08:50;19.30;99.90
5560;DHT22;2803;47.916;8.074;2023-05-23T06:11:18;19.40;99.90
5560;DHT22;2803;47.916;8.074;2023-05-23T06:13:44;19.50;99.90
5560;DHT22;2803;47.916;8.074;2023-05-23T06:16:11;19.50;99.90
5560;DHT22;2803;47.916;8.074;2023-05-23T06:18:39;19.60;99.90
5560;DHT22;2803;47.916;8.074;2023-05-23T06:21:08;19.70;99.90
5560;DHT22;2803;47.916;8.074;2023-05-23T06:23:34;19.80;99.90
5560;DHT22;2803;47.916;8.074;2023-05-23T06:26:01;19.90;99.90
5560;DHT22;2803;47.916;8.074;2023-05-23T06:28:28;20.00;99.90
5560;DHT22;2803;47.916;8.074;2023-05-23T06:30:54;19.90;99.90
5560;DHT22;2803;47.916;8.074;2023-05-23T06:33:21;20.10;99.90
5560;DHT22;2803;47.916;8.074;2023-05-23T06:35:47;20.00;99.90
5560;DHT22;2803;47.916;8.074;2023-05-23T06:38:15;20.10;99.90
5560;DHT22;2803;47.916;8.074;2023-05-23T06:40:42;20.10;99.90
5560;DHT22;2803;47.916;8.074;2023-05-23T06:43:08;20.10;99.90
5560;DHT22;2803;47.916;8.074;2023-05-23T06:45:35;20.10;99.90
5560;DHT22;2803;47.916;8.074;2023-05-23T06:48:02;20.10;99.90
5560;DHT22;2803;47.916;8.074;2023-05-23T06:50:29;20.10;99.90
5560;DHT22;2803;47.916;8.074;2023-05-23T06:52:56;20.10;99.90
5560;DHT22;2803;47.916;8.074;2023-05-23T06:55:24;19.70;99.90
5560;DHT22;2803;47.916;8.074;2023-05-23T06:57:51;19.80;99.90
5560;DHT22;2803;47.916;8.074;2023-05-23T07:00:18;19.80;99.90
5560;DHT22;2803;47.916;8.074;2023-05-23T07:02:45;19.80;99.90
5560;DHT22;2803;47.916;8.074;2023-05-23T07:05:13;19.50;99.90
5560;DHT22;2803;47.916;8.074;2023-05-23T07:07:40;19.40;99.90
5560;DHT22;2803;47.916;8.074;2023-05-23T07:10:07;19.70;99.90
5560;DHT22;2803;47.916;8.074;2023-05-23T07:12:35;19.60;99.90
5560;DHT22;2803;47.916;8.074;2023-05-23T07:15:02;19.20;99.90
5560;DHT22;2803;47.916;8.074;2023-05-23T07:17:28;19.20;99.90
5560;DHT22;2803;47.916;8.074;2023-05-23T07:19:55;19.30;99.90
5560;DHT22;2803;47.916;8.074;2023-05-23T07:22:22;19.50;99.90
5560;DHT22;2803;47.916;8.074;2023-05-23T07:24:49;19.60;99.90
5560;DHT22;2803;47.916;8.074;2023-05-23T07:27:15;19.50;99.90
5560;DHT22;2803;47.916;8.074;2023-05-23T07:29:43;19.40;99.90
5560;DHT22;2803;47.916;8.074;2023-05-23T07:32:10;19.60;99.90
5560;DHT22;2803;47.916;8.074;2023-05-23T07:34:36;19.80;99.90
5560;DHT22;2803;47.916;8.074;2023-05-23T07:37:03;19.70;99.90
5560;DHT22;2803;47.916;8.074;2023-05-23T07:39:30;19.80;99.90
5560;DHT22;2803;47.916;8.074;2023-05-23T07:41:56;19.80;99.90
5560;DHT22;2803;47.916;8.074;2023-05-23T07:44:23;20.00;99.90
5560;DHT22;2803;47.916;8.074;2023-05-23T07:46:51;20.20;99.90
5560;DHT22;2803;47.916;8.074;2023-05-23T07:49:17;20.20;99.90
5560;DHT22;2803;47.916;8.074;2023-05-23T07:51:44;20.10;99.90
5560;DHT22;2803;47.916;8.074;2023-05-23T07:54:11;20.00;99.90
5560;DHT22;2803;47.916;8.074;2023-05-23T07:56:37;19.70;99.90
5560;DHT22;2803;47.916;8.074;2023-05-23T07:59:04;20.00;99.90
5560;DHT22;2803;47.916;8.074;2023-05-23T08:01:32;20.10;99.90
5560;DHT22;2803;47.916;8.074;2023-05-23T08:04:01;20.20;99.90
5560;DHT22;2803;47.916;8.074;2023-05-23T08:06:31;20.10;99.90
5560;DHT22;2803;47.916;8.074;2023-05-23T08:08:58;20.50;99.90
5560;DHT22;2803;47.916;8.074;2023-05-23T08:11:24;20.70;99.90
5560;DHT22;2803;47.916;8.074;2023-05-23T08:13:51;20.90;99.90
5560;DHT22;2803;47.916;8.074;2023-05-23T08:16:18;20.80;99.90
5560;DHT22;2803;47.916;8.074;2023-05-23T08:18:45;20.30;99.90
5560;DHT22;2803;47.916;8.074;2023-05-23T08:21:13;20.10;99.90
5560;DHT22;2803;47.916;8.074;2023-05-23T08:23:40;19.80;99.90
5560;DHT22;2803;47.916;8.074;2023-05-23T08:26:07;19.90;99.90
5560;DHT22;2803;47.916;8.074;2023-05-23T08:28:33;20.10;99.90
5560;DHT22;2803;47.916;8.074;2023-05-23T08:31:00;19.90;99.90
5560;DHT22;2803;47.916;8.074;2023-05-23T08:33:26;20.10;99.90
5560;DHT22;2803;47.916;8.074;2023-05-23T08:35:53;20.80;99.90
5560;DHT22;2803;47.916;8.074;2023-05-23T08:38:21;21.30;99.90
5560;DHT22;2803;47.916;8.074;2023-05-23T08:40:49;21.00;99.90
5560;DHT22;2803;47.916;8.074;2023-05-23T08:43:16;21.30;99.90
5560;DHT22;2803;47.916;8.074;2023-05-23T08:45:43;21.20;99.90
5560;DHT22;2803;47.916;8.074;2023-05-23T08:48:12;20.60;99.90
5560;DHT22;2803;47.916;8.074;2023-05-23T08:50:41;20.60;99.90
5560;DHT22;2803;47.916;8.074;2023-05-23T08:53:08;20.10;99.90
5560;DHT22;2803;47.916;8.074;2023-05-23T08:55:38;20.50;99.90
5560;DHT22;2803;47.916;8.074;2023-05-23T08:58:05;20.50;99.90
5560;DHT22;2803;47.916;8.074;2023-05-23T09:00:32;20.40;99.90
5560;DHT22;2803;47.916;8.074;2023-05-23T09:02:59;20.40;99.90
5560;DHT22;2803;47.916;8.074;2023-05-23T09:05:27;20.30;99.90
5560;DHT22;2803;47.916;8.074;2023-05-23T09:07:53;20.50;99.90
5560;DHT22;2803;47.916;8.074;2023-05-23T09:10:21;20.50;99.90
5560;DHT22;2803;47.916;8.074;2023-05-23T09:12:49;20.40;99.90
5560;DHT22;2803;47.916;8.074;2023-05-23T09:15:16;20.60;99.90
5560;DHT22;2803;47.916;8.074;2023-05-23T09:17:43;20.20;99.90
5560;DHT22;2803;47.916;8.074;2023-05-23T09:20:12;19.50;99.90
5560;DHT22;2803;47.916;8.074;2023-05-23T09:22:47;19.50;99.90
5560;DHT22;2803;47.916;8.074;2023-05-23T09:25:14;19.70;99.90
5560;DHT22;2803;47.916;8.074;2023-05-23T09:27:41;19.70;99.90
5560;DHT22;2803;47.916;8.074;2023-05-23T09:30:10;19.50;99.90
5560;DHT22;2803;47.916;8.074;2023-05-23T09:32:37;19.70;99.90
5560;DHT22;2803;47.916;8.074;2023-05-23T09:35:05;19.80;99.90
5560;DHT22;2803;47.916;8.074;2023-05-23T09:37:34;20.00;99.90
5560;DHT22;2803;47.916;8.074;2023-05-23T09:40:06;20.20;99.90
5560;DHT22;2803;47.916;8.074;2023-05-23T09:42:41;20.10;99.90
5560;DHT22;2803;47.916;8.074;2023-05-23T09:45:09;20.10;99.90
5560;DHT22;2803;47.916;8.074;2023-05-23T09:47:36;20.20;99.90
5560;DHT22;2803;47.916;8.074;2023-05-23T09:50:03;20.80;99.90
5560;DHT22;2803;47.916;8.074;2023-05-23T09:52:35;20.90;99.90
5560;DHT22;2803;47.916;8.074;2023-05-23T09:55:02;21.00;99.90
5560;DHT22;2803;47.916;8.074;2023-05-23T09:57:30;21.10;99.90
5560;DHT22;2803;47.916;8.074;2023-05-23T10:00:00;21.10;99.90
5560;DHT22;2803;47.916;8.074;2023-05-23T10:02:52;21.20;99.90
5560;DHT22;2803;47.916;8.074;2023-05-23T10:05:29;21.20;99.90
5560;DHT22;2803;47.916;8.074;2023-05-23T10:07:57;21.40;99.90
5560;DHT22;2803;47.916;8.074;2023-05-23T10:10:28;21.40;99.90
5560;DHT22;2803;47.916;8.074;2023-05-23T10:12:57;21.40;99.90
5560;DHT22;2803;47.916;8.074;2023-05-23T10:15:26;21.40;99.90
5560;DHT22;2803;47.916;8.074;2023-05-23T10:18:06;21.60;99.90
5560;DHT22;2803;47.916;8.074;2023-05-23T10:20:35;21.30;99.90
5560;DHT22;2803;47.916;8.074;2023-05-23T10:23:04;21.10;99.90
5560;DHT22;2803;47.916;8.074;2023-05-23T10:25:31;21.20;99.90
5560;DHT22;2803;47.916;8.074;2023-05-23T10:27:59;21.70;99.90
5560;DHT22;2803;47.916;8.074;2023-05-23T10:30:27;21.70;99.90
5560;DHT22;2803;47.916;8.074;2023-05-23T10:32:54;21.50;99.90
5560;DHT22;2803;47.916;8.074;2023-05-23T10:35:28;21.60;99.90
5560;DHT22;2803;47.916;8.074;2023-05-23T10:38:01;21.10;99.90
5560;DHT22;2803;47.916;8.074;2023-05-23T10:40:36;21.60;99.90
5560;DHT22;2803;47.916;8.074;2023-05-23T10:43:12;21.50;99.90
5560;DHT22;2803;47.916;8.074;2023-05-23T10:45:42;21.40;99.90
5560;DHT22;2803;47.916;8.074;2023-05-23T10:48:19;21.50;99.90
5560;DHT22;2803;47.916;8.074;2023-05-23T10:51:00;21.50;99.90
5560;DHT22;2803;47.916;8.074;2023-05-23T10:53:28;21.60;99.90
5560;DHT22;2803;47.916;8.074;2023-05-23T10:55:55;21.70;99.90
5560;DHT22;2803;47.916;8.074;2023-05-23T10:58:22;22.10;99.90
5560;DHT22;2803;47.916;8.074;2023-05-23T11:00:51;22.50;99.90
5560;DHT22;2803;47.916;8.074;2023-05-23T11:03:29;23.00;99.90
5560;DHT22;2803;47.916;8.074;2023-05-23T11:06:00;23.60;99.90
5560;DHT22;2803;47.916;8.074;2023-05-23T11:08:27;23.10;99.90
5560;DHT22;2803;47.916;8.074;2023-05-23T11:10:57;22.40;99.90
5560;DHT22;2803;47.916;8.074;2023-05-23T11:13:25;21.80;99.90
5560;DHT22;2803;47.916;8.074;2023-05-23T11:15:51;21.30;99.90
5560;DHT22;2803;47.916;8.074;2023-05-23T11:18:21;21.30;99.90
5560;DHT22;2803;47.916;8.074;2023-05-23T11:20:49;22.10;99.90
5560;DHT22;2803;47.916;8.074;2023-05-23T11:23:18;22.50;99.90
5560;DHT22;2803;47.916;8.074;2023-05-23T11:25:48;22.90;99.90
5560;DHT22;2803;47.916;8.074;2023-05-23T11:28:15;22.90;99.90
5560;DHT22;2803;47.916;8.074;2023-05-23T11:30:43;23.00;99.90
5560;DHT22;2803;47.916;8.074;2023-05-23T11:33:13;22.30;99.90
5560;DHT22;2803;47.916;8.074;2023-05-23T11:35:41;22.30;99.90
5560;DHT22;2803;47.916;8.074;2023-05-23T11:38:08;22.00;99.90
5560;DHT22;2803;47.916;8.074;2023-05-23T11:40:37;22.50;99.90
5560;DHT22;2803;47.916;8.074;2023-05-23T11:43:05;22.40;99.90
5560;DHT22;2803;47.916;8.074;2023-05-23T11:45:33;23.00;99.90
5560;DHT22;2803;47.916;8.074;2023-05-23T11:48:04;23.50;99.90
5560;DHT22;2803;47.916;8.074;2023-05-23T11:50:32;23.40;99.90
5560;DHT22;2803;47.916;8.074;2023-05-23T11:52:59;23.80;99.90
5560;DHT22;2803;47.916;8.074;2023-05-23T11:55:25;23.70;99.90
5560;DHT22;2803;47.916;8.074;2023-05-23T11:57:55;23.90;99.90
5560;DHT22;2803;47.916;8.074;2023-05-23T12:00:22;23.80;99.90
5560;DHT22;2803;47.916;8.074;2023-05-23T12:02:48;23.80;99.90
5560;DHT22;2803;47.916;8.074;2023-05-23T12:05:15;23.80;99.90
5560;DHT22;2803;47.916;8.074;2023-05-23T12:07:43;23.40;99.90
5560;DHT22;2803;47.916;8.074;2023-05-23T12:10:10;23.10;99.90
5560;DHT22;2803;47.916;8.074;2023-05-23T12:12:37;23.30;99.90
5560;DHT22;2803;47.916;8.074;2023-05-23T12:15:05;23.40;99.90
5560;DHT22;2803;47.916;8.074;2023-05-23T12:17:32;23.60;99.90
5560;DHT22;2803;47.916;8.074;2023-05-23T12:19:59;24.00;99.90
5560;DHT22;2803;47.916;8.074;2023-05-23T12:22:26;24.40;99.90
5560;DHT22;2803;47.916;8.074;2023-05-23T12:24:54;24.60;99.90
5560;DHT22;2803;47.916;8.074;2023-05-23T12:27:26;24.40;99.90
5560;DHT22;2803;47.916;8.074;2023-05-23T12:30:05;24.90;99.90
5560;DHT22;2803;47.916;8.074;2023-05-23T12:32:33;25.40;99.90
5560;DHT22;2803;47.916;8.074;2023-05-23T12:35:00;25.40;99.90
5560;DHT22;2803;47.916;8.074;2023-05-23T12:37:27;25.40;99.90
5560;DHT22;2803;47.916;8.074;2023-05-23T12:39:55;25.20;99.90
5560;DHT22;2803;47.916;8.074;2023-05-23T12:42:21;24.70;99.90
5560;DHT22;2803;47.916;8.074;2023-05-23T12:44:50;24.50;99.90
5560;DHT22;2803;47.916;8.074;2023-05-23T12:47:18;24.70;99.90
5560;DHT22;2803;47.916;8.074;2023-05-23T12:49:45;25.20;99.90
5560;DHT22;2803;47.916;8.074;2023-05-23T12:52:12;25.20;99.90
5560;DHT22;2803;47.916;8.074;2023-05-23T12:54:39;25.20;99.90
5560;DHT22;2803;47.916;8.074;2023-05-23T12:57:05;25.00;99.90
5560;DHT22;2803;47.916;8.074;2023-05-23T12:59:32;25.40;99.90
5560;DHT22;2803;47.916;8.074;2023-05-23T13:01:59;25.80;99.90
5560;DHT22;2803;47.916;8.074;2023-05-23T13:04:28;25.30;99.90
5560;DHT22;2803;47.916;8.074;2023-05-23T13:06:55;25.40;99.90
5560;DHT22;2803;47.916;8.074;2023-05-23T13:09:21;25.70;99.90
5560;DHT22;2803;47.916;8.074;2023-05-23T13:11:48;25.50;99.90
5560;DHT22;2803;47.916;8.074;2023-05-23T13:14:14;25.10;99.90
5560;DHT22;2803;47.916;8.074;2023-05-23T13:16:41;25.00;99.90
5560;DHT22;2803;47.916;8.074;2023-05-23T13:19:09;24.30;99.90
5560;DHT22;2803;47.916;8.074;2023-05-23T13:21:37;23.70;99.90
5560;DHT22;2803;47.916;8.074;2023-05-23T13:24:04;23.80;99.90
5560;DHT22;2803;47.916;8.074;2023-05-23T13:26:31;24.60;99.90
5560;DHT22;2803;47.916;8.074;2023-05-23T13:28:58;24.70;99.90
5560;DHT22;2803;47.916;8.074;2023-05-23T13:31:24;24.90;99.90
5560;DHT22;2803;47.916;8.074;2023-05-23T13:33:51;24.70;99.90
5560;DHT22;2803;47.916;8.074;2023-05-23T13:36:18;24.90;99.90
5560;DHT22;2803;47.916;8.074;2023-05-23T13:38:46;24.70;99.90
5560;DHT22;2803;47.916;8.074;2023-05-23T13:41:12;24.80;99.90
5560;DHT22;2803;47.916;8.074;2023-05-23T13:43:39;24.70;99.90
5560;DHT22;2803;47.916;8.074;2023-05-23T13:46:05;25.20;99.90
5560;DHT22;2803;47.916;8.074;2023-05-23T13:48:32;24.90;99.90
5560;DHT22;2803;47.916;8.074;2023-05-23T13:51:00;24.90;99.90
5560;DHT22;2803;47.916;8.074;2023-05-23T13:53:27;24.80;99.90
5560;DHT22;2803;47.916;8.074;2023-05-23T13:55:55;24.70;99.90
5560;DHT22;2803;47.916;8.074;2023-05-23T13:58:23;24.20;99.90
5560;DHT22;2803;47.916;8.074;2023-05-23T14:00:49;24.10;99.90
5560;DHT22;2803;47.916;8.074;2023-05-23T14:03:16;24.10;99.90
5560;DHT22;2803;47.916;8.074;2023-05-23T14:05:43;24.70;99.90
5560;DHT22;2803;47.916;8.074;2023-05-23T14:08:10;24.90;99.90
5560;DHT22;2803;47.916;8.074;2023-05-23T14:10:38;24.40;99.90
5560;DHT22;2803;47.916;8.074;2023-05-23T14:13:06;24.30;99.90
5560;DHT22;2803;47.916;8.074;2023-05-23T14:15:33;24.50;99.90
5560;DHT22;2803;47.916;8.074;2023-05-23T14:18:02;24.40;99.90
5560;DHT22;2803;47.916;8.074;2023-05-23T14:20:29;24.80;99.90
5560;DHT22;2803;47.916;8.074;2023-05-23T14:22:56;25.20;99.90
5560;DHT22;2803;47.916;8.074;2023-05-23T14:25:22;24.80;99.90
5560;DHT22;2803;47.916;8.074;2023-05-23T14:27:49;23.90;99.90
5560;DHT22;2803;47.916;8.074;2023-05-23T14:30:17;23.30;99.90
5560;DHT22;2803;47.916;8.074;2023-05-23T14:32:44;23.00;99.90
5560;DHT22;2803;47.916;8.074;2023-05-23T14:35:11;22.80;99.90
5560;DHT22;2803;47.916;8.074;2023-05-23T14:37:38;22.90;99.90
5560;DHT22;2803;47.916;8.074;2023-05-23T14:40:05;22.90;99.90
5560;DHT22;2803;47.916;8.074;2023-05-23T14:42:32;23.00;99.90
5560;DHT22;2803;47.916;8.074;2023-05-23T14:44:59;22.50;99.90
5560;DHT22;2803;47.916;8.074;2023-05-23T14:47:27;22.80;99.90
5560;DHT22;2803;47.916;8.074;2023-05-23T14:49:54;22.70;99.90
5560;DHT22;2803;47.916;8.074;2023-05-23T14:52:20;22.50;99.90
5560;DHT22;2803;47.916;8.074;2023-05-23T14:54:47;22.90;99.90
5560;DHT22;2803;47.916;8.074;2023-05-23T14:57:13;23.20;99.90
5560;DHT22;2803;47.916;8.074;2023-05-23T14:59:40;23.20;99.90
5560;DHT22;2803;47.916;8.074;2023-05-23T15:02:07;23.30;99.90
5560;DHT22;2803;47.916;8.074;2023-05-23T15:04:36;22.60;99.90
5560;DHT22;2803;47.916;8.074;2023-05-23T15:07:03;22.50;99.90
5560;DHT22;2803;47.916;8.074;2023-05-23T15:09:29;22.60;99.90
5560;DHT22;2803;47.916;8.074;2023-05-23T15:11:56;22.30;99.90
5560;DHT22;2803;47.916;8.074;2023-05-23T15:14:24;22.10;99.90
5560;DHT22;2803;47.916;8.074;2023-05-23T15:16:54;22.30;99.90
5560;DHT22;2803;47.916;8.074;2023-05-23T15:19:21;22.20;99.90
5560;DHT22;2803;47.916;8.074;2023-05-23T15:21:49;22.10;99.90
5560;DHT22;2803;47.916;8.074;2023-05-23T15:24:17;21.90;99.90
5560;DHT22;2803;47.916;8.074;2023-05-23T15:26:43;21.70;99.90
5560;DHT22;2803;47.916;8.074;2023-05-23T15:29:10;22.00;99.90
5560;DHT22;2803;47.916;8.074;2023-05-23T15:31:38;21.90;99.90
5560;DHT22;2803;47.916;8.074;2023-05-23T15:34:05;21.90;99.90
5560;DHT22;2803;47.916;8.074;2023-05-23T15:36:31;21.50;99.90
5560;DHT22;2803;47.916;8.074;2023-05-23T15:38:59;22.10;99.90
5560;DHT22;2803;47.916;8.074;2023-05-23T15:41:26;21.80;99.90
5560;DHT22;2803;47.916;8.074;2023-05-23T15:43:53;21.70;99.90
5560;DHT22;2803;47.916;8.074;2023-05-23T15:46:19;21.70;99.90
5560;DHT22;2803;47.916;8.074;2023-05-23T15:48:46;21.40;99.90
5560;DHT22;2803;47.916;8.074;2023-05-23T15:51:12;21.40;99.90
5560;DHT22;2803;47.916;8.074;2023-05-23T15:53:40;21.50;99.90
5560;DHT22;2803;47.916;8.074;2023-05-23T15:56:08;21.40;99.90
5560;DHT22;2803;47.916;8.074;2023-05-23T15:58:35;21.10;99.90
5560;DHT22;2803;47.916;8.074;2023-05-23T16:01:01;20.90;99.90
5560;DHT22;2803;47.916;8.074;2023-05-23T16:03:28;20.70;99.90
5560;DHT22;2803;47.916;8.074;2023-05-23T16:05:54;20.80;99.90